Latest Weather Observations for Holmes Reef

IDQ60801

Issued at 11:32 am EST Tuesday 27 June 2017 (issued every 30 minutes, with the page automatically refreshed every 10 minutes)

About weather observations | Map of weather stations | Latest weather observations for QLD | Other Formats
Station Details ID: 200732 Name: HOLMES REEF Lat: -16.47 Lon: 147.87 Height: 1.9 m
Data from the previous 72 hours. | See also: Recent months at Holmes Reef
Date/Time
EST
Temp
°C
App
Temp
°C
Dew
Point
°C
Rel
Hum
%
Delta-T
°C
Wind Press
QNH
hPa
Press
MSL
hPa
Rain since
9am
mm
Dir  Spd
km/h
Gust
km/h
Spd
kts
Gust
kts
27/11:30am 25.0 - - - - ESE 33 39 18 21 1017.2 - -
27/11:15am 24.7 - - - - ESE 35 37 19 20 1017.3 1017.0 -
27/11:00am 24.6 - - - - ESE 33 37 18 20 1017.4 - -
27/10:30am 25.0 - - - - ESE 35 39 19 21 1017.5 - -
27/10:15am 24.7 - - - - ESE 35 - 19 - - 1017.2 -
27/10:00am 24.6 - - - - ESE 35 41 19 22 1017.6 - -
27/09:30am 24.8 - - - - ESE 37 43 20 23 1017.5 - -
27/09:15am 24.6 - - - - ESE 39 - 21 - - 1017.2 -
27/09:00am 24.9 - - - - ESE 35 41 19 22 1017.6 - -
27/08:30am 24.5 - - - - ESE 37 41 20 22 1017.5 - -
27/08:15am 24.7 - - - - SE 33 - 18 - - 1017.1 -
27/08:00am 24.6 - - - - SE 35 41 19 22 1017.3 - -
27/07:30am 24.5 - - - - SE 35 41 19 22 1016.8 - -
27/07:15am 24.4 - - - - SE 33 - 18 - - 1016.3 -
27/07:00am 24.6 - - - - ESE 33 39 18 21 1016.4 - -
27/06:30am 24.5 - - - - ESE 35 43 19 23 1016.2 - -
27/06:15am 24.5 - - - - SE 35 - 19 - - 1015.8 -
27/06:00am 24.6 - - - - SE 33 39 18 21 1016.1 - -
27/05:30am 24.6 - - - - SE 33 39 18 21 1016.0 - -
27/05:15am 24.5 - - - - SE 33 - 18 - - 1015.6 -
27/05:00am 24.4 - - - - ESE 35 41 19 22 1015.8 - -
27/04:30am 24.5 - - - - ESE 33 39 18 21 1015.9 - -
27/04:15am 24.6 - - - - ESE 33 - 18 - - 1015.6 -
27/04:00am 24.4 - - - - ESE 33 37 18 20 1016.0 - -
27/03:30am 24.6 - - - - ESE 35 41 19 22 1016.0 - -
27/03:15am 24.4 - - - - ESE 35 - 19 - - 1015.7 -
27/03:00am 24.6 - - - - ESE 33 39 18 21 1016.0 - -
27/02:30am 24.5 - - - - ESE 35 39 19 21 1016.2 - -
27/02:15am 24.6 - - - - ESE 33 - 18 - - 1016.1 -
27/02:00am 24.3 - - - - ESE 35 39 19 21 1016.5 - -
27/01:30am 24.4 - - - - ESE 33 37 18 20 1016.8 - -
27/01:15am 24.3 - - - - ESE 32 - 17 - - 1016.7 -
27/01:00am 24.3 - - - - ESE 32 39 17 21 1017.1 - -
27/12:30am 24.4 - - - - ESE 33 37 18 20 1017.3 - -
27/12:15am 24.8 - - - - ESE 32 - 17 - - 1017.1 -
27/12:00am 24.4 - - - - ESE 33 37 18 20 1017.4 - -
 
Date/Time
EST
Temp
°C
App
Temp
°C
Dew
Point
°C
Rel
Hum
%
Delta-T
°C
Wind Press
QNH
hPa
Press
MSL
hPa
Rain since
9am
mm
Dir  Spd
km/h
Gust
km/h
Spd
kts
Gust
kts
26/11:30pm 24.5 - - - - ESE 35 43 19 23 1017.5 - -
26/11:15pm 24.4 - - - - E 35 - 19 - - 1017.2 -
26/11:00pm 24.4 - - - - ESE 32 39 17 21 1017.6 - -
26/10:30pm 24.4 - - - - ESE 39 46 21 25 1017.7 - -
26/10:15pm 24.9 - - - - ESE 37 - 20 - - 1017.5 -
26/10:00pm 24.5 - - - - ESE 35 41 19 22 1017.8 - -
26/09:30pm 24.6 - - - - ESE 33 39 18 21 1017.9 - -
26/09:15pm 24.5 - - - - ESE 35 - 19 - - 1017.5 -
26/09:00pm 24.5 - - - - ESE 39 43 21 23 1017.5 - -
26/08:30pm 24.6 - - - - ESE 37 43 20 23 1017.3 - -
26/08:15pm 24.7 - - - - ESE 39 - 21 - - 1016.9 -
26/08:00pm 24.5 - - - - ESE 37 43 20 23 1017.1 - -
26/07:30pm 24.4 - - - - ESE 35 41 19 22 1016.9 - -
26/07:15pm 24.5 - - - - ESE 37 - 20 - - 1016.4 -
26/07:00pm 24.5 - - - - ESE 35 44 19 24 1016.7 - -
26/06:30pm 24.6 - - - - ESE 35 43 19 23 1016.6 - -
26/06:15pm 24.5 - - - - ESE 35 - 19 - - 1016.0 -
26/06:00pm 24.6 - - - - ESE 39 44 21 24 1016.2 - -
26/05:30pm 24.8 - - - - SE 37 43 20 23 1016.1 - -
26/05:15pm 24.7 - - - - SE 37 - 20 - - 1015.6 -
26/05:00pm 24.9 - - - - SE 37 43 20 23 1015.9 - -
26/04:30pm 24.6 - - - - ESE 37 43 20 23 1015.7 - -
26/04:15pm 24.9 - - - - SE 37 - 20 - - 1015.3 -
26/04:00pm 24.8 - - - - SE 37 43 20 23 1015.5 - -
26/03:30pm 24.9 - - - - SE 35 41 19 22 1015.4 - -
26/03:15pm 24.6 - - - - SE 37 - 20 - - 1015.1 -
26/03:00pm 24.7 - - - - ESE 35 43 19 23 1015.3 - -
26/02:30pm 24.8 - - - - ESE 35 43 19 23 1015.2 - -
26/02:15pm 24.2 - - - - ESE 30 - 16 - - 1015.1 -
26/02:00pm 24.1 - - - - SE 33 37 18 20 1015.5 - -
26/01:30pm 22.3 - - - - SE 43 48 23 26 1015.7 - -
26/01:21pm 23.5 - - - - SE 39 48 21 26 1015.7 - -
26/01:15pm 22.9 - - - - E 26 - 14 - - 1015.6 -
26/01:00pm 22.7 - - - - E 32 37 17 20 1016.1 - -
26/12:30pm 21.7 - - - - E 30 37 16 20 1016.6 - -
26/12:15pm 21.9 - - - - ESE 22 - 12 - - 1016.5 -
26/12:00pm 21.5 - - - - ESE 30 39 16 21 1017.0 - -
26/11:30am 22.4 - - - - E 37 46 20 25 1017.2 - -
26/11:19am 23.0 - - - - E 37 41 20 22 1017.3 - -
26/11:15am 23.0 - - - - SE 35 - 19 - - 1016.9 -
26/11:00am 22.8 - - - - SE 35 41 19 22 1017.3 - -
26/10:30am 23.0 - - - - SSE 37 41 20 22 1017.3 - -
26/10:15am 23.4 - - - - SE 35 - 19 - - 1016.9 -
26/10:00am 23.7 - - - - SE 35 43 19 23 1017.3 - -
26/09:30am 23.5 - - - - SE 35 41 19 22 1017.2 - -
26/09:15am 23.5 - - - - SE 37 - 20 - - 1017.0 -
26/09:00am 23.7 - - - - SE 35 41 19 22 1017.1 - -
26/08:30am 23.8 - - - - ESE 37 41 20 22 1016.7 - -
26/08:15am 23.5 - - - - ESE 35 - 19 - - 1016.3 -
26/08:00am 23.5 - - - - ESE 35 41 19 22 1016.5 - -
26/07:30am 24.3 - - - - ESE 35 39 19 21 1016.0 - -
26/07:15am 24.1 - - - - SE 33 - 18 - - 1015.4 -
26/07:00am 23.9 - - - - SE 33 35 18 19 1015.6 - -
26/06:30am 24.0 - - - - SE 32 37 17 20 1015.4 - -
26/06:15am 23.7 - - - - SE 32 - 17 - - 1014.8 -
26/06:00am 24.1 - - - - SE 32 35 17 19 1015.1 - -
26/05:30am 24.2 - - - - ESE 30 33 16 18 1015.0 - -
26/05:15am 24.2 - - - - ESE 26 - 14 - - 1014.7 -
26/05:00am 24.1 - - - - SE 15 19 8 10 1015.1 - -
26/04:30am 23.9 - - - - SE 19 46 10 25 1015.2 - -
26/04:15am 23.0 - - - - SE 39 - 21 - - 1014.6 -
26/04:00am 23.8 - - - - ESE 30 32 16 17 1015.0 - -
26/03:30am 23.8 - - - - SE 33 39 18 21 1015.0 - -
26/03:15am 23.8 - - - - SE 30 - 16 - - 1014.6 -
26/03:00am 23.8 - - - - SE 30 33 16 18 1015.1 - -
26/02:30am 23.9 - - - - SE 33 39 18 21 1015.1 - -
26/02:15am 24.0 - - - - SE 33 - 18 - - 1014.8 -
26/02:00am 24.1 - - - - SE 32 37 17 20 1015.3 - -
26/01:30am 23.9 - - - - SE 26 39 14 21 1015.5 - -
26/01:15am 23.8 - - - - SSE 33 - 18 - - 1015.5 -
26/01:00am 23.5 - - - - E 30 43 16 23 1016.0 - -
26/12:30am 24.4 - - - - SE 32 37 17 20 1016.0 - -
26/12:15am 24.6 - - - - SE 35 - 19 - - 1015.8 -
26/12:00am 24.5 - - - - SE 33 41 18 22 1016.1 - -
 
Date/Time
EST
Temp
°C
App
Temp
°C
Dew
Point
°C
Rel
Hum
%
Delta-T
°C
Wind Press
QNH
hPa
Press
MSL
hPa
Rain since
9am
mm
Dir  Spd
km/h
Gust
km/h
Spd
kts
Gust
kts
25/11:30pm 24.7 - - - - ESE 33 39 18 21 1016.1 - -
25/11:15pm 24.4 - - - - SE 35 - 19 - - 1015.8 -
25/11:00pm 24.7 - - - - SE 35 41 19 22 1016.1 - -
25/10:30pm 24.5 - - - - SE 35 41 19 22 1016.2 - -
25/10:15pm 24.4 - - - - SE 33 - 18 - - 1016.0 -
25/10:00pm 24.4 - - - - SE 37 43 20 23 1016.3 - -
25/09:39pm 24.6 - - - - SE 33 43 18 23 1016.3 - -
25/09:30pm 23.8 - - - - E 37 44 20 24 1016.2 - -
25/09:28pm 24.0 - - - - E 37 44 20 24 1016.2 - -
25/09:15pm 24.4 - - - - ESE 33 - 18 - - 1015.8 -
25/09:00pm 24.5 - - - - SE 35 41 19 22 1016.0 - -
25/08:30pm 24.7 - - - - SE 32 37 17 20 1015.6 - -
25/08:15pm 24.7 - - - - SE 33 - 18 - - 1015.2 -
25/08:06pm 24.7 - - - - SE 30 37 16 20 1015.3 - -
25/08:00pm 24.6 - - - - ESE 4 6 2 3 1015.3 - -
25/07:30pm 24.7 - - - - SE 4 7 2 4 1015.1 - -
25/07:15pm 24.8 - - - - ESE 4 - 2 - - 1014.8 -
25/07:00pm 24.7 - - - - ESE 4 6 2 3 1015.0 - -
25/06:30pm 24.6 - - - - SE 4 6 2 3 1014.7 - -
25/06:15pm 24.6 - - - - SE 4 - 2 - - 1014.2 -
25/06:00pm 24.6 - - - - SE 4 6 2 3 1014.3 - -
25/05:30pm 24.6 - - - - ESE 30 35 16 19 1014.1 - -
25/05:15pm 24.8 - - - - SE 30 - 16 - - 1013.8 -
25/05:00pm 24.7 - - - - SE 30 35 16 19 1014.0 - -
25/04:30pm 24.5 - - - - SE 30 35 16 19 1014.1 - -
25/04:15pm 24.9 - - - - SE 28 - 15 - - 1013.7 -
25/04:00pm 24.9 - - - - SE 28 32 15 17 1014.0 - -
25/03:30pm 25.2 - - - - SE 28 33 15 18 1013.9 - -
25/03:15pm 24.9 - - - - SE 30 - 16 - - 1013.5 -
25/03:00pm 24.7 - - - - SE 30 33 16 18 1013.7 - -
25/02:30pm 24.9 - - - - SE 28 32 15 17 1013.8 - -
25/02:15pm 25.0 - - - - SE 30 - 16 - - 1013.6 -
25/02:00pm 24.6 - - - - SE 28 33 15 18 1013.9 - -
25/01:30pm 24.7 - - - - SE 28 33 15 18 1014.1 - -
25/01:15pm 24.6 - - - - SE 30 - 16 - - 1013.9 -
25/01:00pm 24.6 - - - - SE 32 33 17 18 1014.3 - -
25/12:30pm 24.6 - - - - SE 28 32 15 17 1014.9 - -
25/12:15pm 24.8 - - - - SE 28 - 15 - - 1014.9 -
25/12:00pm 24.8 - - - - SE 28 32 15 17 1015.5 - -
25/11:30am 24.7 - - - - SE 30 33 16 18 1015.6 - -
25/11:15am 24.5 - - - - SE 32 - 17 - - 1015.4 -
25/11:00am 24.7 - - - - SE 32 35 17 19 1015.7 - -
25/10:30am 24.4 - - - - SE 32 35 17 19 1016.0 - -
25/10:15am 24.5 - - - - SE 33 - 18 - - 1015.8 -
25/10:00am 24.7 - - - - SE 33 39 18 21 1016.1 - -
25/09:30am 24.8 - - - - SE 33 37 18 20 1015.9 - -
25/09:15am 24.5 - - - - SE 32 - 17 - - 1015.6 -
25/09:00am 24.6 - - - - SE 33 37 18 20 1016.0 - -
25/08:30am 24.6 - - - - SE 33 37 18 20 1015.8 - -
25/08:15am 24.7 - - - - ESE 33 - 18 - - 1015.4 -
25/08:00am 24.7 - - - - SE 33 39 18 21 1015.5 - -
25/07:30am 24.5 - - - - SE 35 39 19 21 1014.9 - -
25/07:15am 24.4 - - - - ESE 35 - 19 - - 1014.5 -
25/07:00am 24.5 - - - - SE 35 39 19 21 1014.6 - -
25/06:30am 24.3 - - - - SE 33 37 18 20 1014.2 - -
25/06:15am 24.4 - - - - SE 33 - 18 - - 1013.9 -
25/06:00am 24.4 - - - - SE 33 37 18 20 1014.0 - -
25/05:30am 24.4 - - - - ESE 33 35 18 19 1013.9 - -
25/05:15am 24.3 - - - - SE 33 - 18 - - 1013.5 -
25/05:00am 24.3 - - - - SE 35 39 19 21 1013.7 - -
25/04:30am 24.3 - - - - ESE 35 39 19 21 1013.7 - -
25/04:15am 24.4 - - - - SE 35 - 19 - - 1013.5 -
25/04:00am 24.2 - - - - ESE 37 41 20 22 1013.8 - -
25/03:30am 24.2 - - - - ESE 35 41 19 22 1013.7 - -
25/03:15am 24.4 - - - - ESE 33 - 18 - - 1013.6 -
25/03:00am 24.4 - - - - ESE 33 39 18 21 1014.0 - -
25/02:30am 24.4 - - - - ESE 35 39 19 21 1014.1 - -
25/02:15am 24.4 - - - - ESE 33 - 18 - - 1013.8 -
25/02:00am 24.4 - - - - ESE 33 37 18 20 1014.2 - -
25/01:30am 24.3 - - - - ESE 32 37 17 20 1014.5 - -
25/01:15am 24.3 - - - - ESE 32 - 17 - - 1014.4 -
25/01:00am 24.3 - - - - ESE 32 35 17 19 1014.9 - -
25/12:30am 24.6 - - - - ESE 33 37 18 20 1015.0 - -
25/12:15am 24.5 - - - - E 32 - 17 - - 1014.8 -
25/12:00am 24.4 - - - - ESE 33 39 18 21 1015.1 - -
 
Date/Time
EST
Temp
°C
App
Temp
°C
Dew
Point
°C
Rel
Hum
%
Delta-T
°C
Wind Press
QNH
hPa
Press
MSL
hPa
Rain since
9am
mm
Dir  Spd
km/h
Gust
km/h
Spd
kts
Gust
kts
24/11:30pm 24.4 - - - - E 33 37 18 20 1015.1 - -
24/11:15pm 24.6 - - - - E 33 - 18 - - 1014.9 -
24/11:00pm 24.4 - - - - E 33 39 18 21 1015.2 - -
24/10:30pm 24.6 - - - - E 35 39 19 21 1015.2 - -
24/10:15pm 24.6 - - - - E 35 - 19 - - 1015.0 -
24/10:00pm 24.6 - - - - E 35 41 19 22 1015.4 - -
24/09:30pm 24.7 - - - - ESE 33 39 18 21 1015.5 - -
24/09:15pm 24.7 - - - - ESE 33 - 18 - - 1015.2 -
24/09:00pm 24.7 - - - - ESE 35 39 19 21 1015.5 - -
24/08:30pm 24.7 - - - - ESE 33 39 18 21 1015.1 - -
24/08:15pm 24.8 - - - - ESE 33 - 18 - - 1014.8 -
24/08:00pm 24.8 - - - - ESE 33 39 18 21 1015.0 - -
24/07:30pm 24.9 - - - - ESE 33 37 18 20 1014.9 - -
24/07:15pm 24.7 - - - - ESE 33 - 18 - - 1014.5 -
24/07:00pm 24.5 - - - - ESE 33 41 18 22 1014.6 - -
24/06:30pm 24.7 - - - - ESE 35 41 19 22 1014.4 - -
24/06:15pm 24.7 - - - - ESE 35 - 19 - - 1014.0 -
24/06:00pm 24.9 - - - - ESE 33 39 18 21 1014.2 - -
24/05:30pm 24.7 - - - - SE 33 39 18 21 1013.9 - -
24/05:15pm 24.8 - - - - SE 33 - 18 - - 1013.6 -
24/05:00pm 24.6 - - - - ESE 33 41 18 22 1013.8 - -
24/04:30pm 25.2 - - - - SE 32 39 17 21 1013.6 - -
24/04:15pm 25.1 - - - - SE 30 - 16 - - 1013.1 -
24/04:00pm 25.1 - - - - SE 32 35 17 19 1013.3 - -
24/03:30pm 24.9 - - - - SE 33 39 18 21 1013.1 - -
24/03:15pm 24.8 - - - - SE 33 - 18 - - 1012.8 -
24/03:00pm 24.8 - - - - SE 33 37 18 20 1013.3 - -
24/02:30pm 24.7 - - - - SE 33 39 18 21 1013.3 - -
24/02:15pm 24.7 - - - - SE 33 - 18 - - 1013.0 -
24/02:00pm 24.7 - - - - ESE 33 39 18 21 1013.3 - -
24/01:30pm 24.5 - - - - ESE 33 37 18 20 1013.4 - -
24/01:15pm 24.6 - - - - ESE 33 - 18 - - 1013.2 -
24/01:00pm 24.7 - - - - ESE 33 37 18 20 1013.7 - -
24/12:30pm 25.0 - - - - ESE 33 39 18 21 1014.1 - -
24/12:15pm 24.4 - - - - ESE 35 - 19 - - 1013.9 -
24/12:00pm 23.9 - - - - SE 30 33 16 18 1014.3 - -

Other Formats:

Comma delimited format used in spreadsheet applications
http://www.bom.gov.au/fwo/IDQ60801/IDQ60801.94289.axf

JavaScript Object Notation format (JSON) in row-major order
http://www.bom.gov.au/fwo/IDQ60801/IDQ60801.94289.json